首页
METAR-TAF:

METAR-TAF

机场 :

東密德蘭機場

東米德蘭, 英格兰

纬度: 52-50N, 经度: 001-20W, 海拔: 94米

当前天气观测

该预报发布于37分钟前的19:20 UTC
风速4节,风向西
温度 11°C
湿度 94%
气压 1017 hPa
能见度10公里或以上
多云层高于2300英尺

METAR: EGNX 301920Z 27004KT 9999 BKN023 11/10 Q1017

时间: 19:57 (19:57 UTC)

预报

该预报发布于3小时和2分钟前的16:55 UTC
预报有效从30日的 18点(UTC)到 31日的 18点(UTC)
风速3节,风向多变
能见度10公里或以上
散云层高于2500英尺
短暂存在
从 30日的 18点(UTC)到 31日的 15点(UTC)
能見度: 6000
多云层高于1000英尺
几率 40% :
短暂存在
从 30日的 20点(UTC)到 31日的 03点(UTC)
能見度: 4000
多云层高于300英尺
雨, 毛毛雨
成为
从 31日的 00点(UTC)到 31日的 03点(UTC)
风速15节,风向,有时为25节阵风
成为
从 31日的 06点(UTC)到 31日的 09点(UTC)
风速20节,风向,有时为35节阵风
几率 30% :
短暂存在
从 31日的 11点(UTC)到 31日的 15点(UTC)
能見度: 2000
大雨
成为
从 31日的 14点(UTC)到 31日的 17点(UTC)
风速12节,风向西转西南
短暂存在
从 31日的 17点(UTC)到 31日的 18点(UTC)
风速15节,风向西转西南,有时为25节阵风

TAF: EGNX 301655Z 3018/3118 VRB03KT 9999 SCT025 TEMPO 3018/3115 6000 RA BKN010 PROB40 TEMPO 3020/3103 4000 RADZ BKN003 BECMG 3100/3103 18015G25KT BECMG 3106/3109 18020G35KT PROB30 TEMPO 3111/3115 2000 +RA BECMG 3114/3117 24012KT TEMPO 3117/3118 24015G25KT

超过4000个机场的气象观测和天气预报(METAR&TAF报告)。

可查询的气象台以黄色和红色小点在地图上表示。

将鼠标移到小点上方,可查看气象台名称。

然后点击查看天气观测和预报。

如需切换地图:点击带黑十字的绿色按钮放大地图;点击带横线的绿色按钮缩小地图;或者点击绿色箭头查看邻近地区的地图。


METAR-TAF: